createdAt,value
2022-12-08T00:01:32.606Z,-1.67
2022-12-08T00:04:01.826Z,-1.68
2022-12-08T00:06:52.927Z,-1.67
2022-12-08T00:09:24.185Z,-1.73
2022-12-08T00:11:57.684Z,-1.74
2022-12-08T00:14:27.793Z,-1.73
2022-12-08T00:16:56.217Z,-1.73
2022-12-08T00:19:25.055Z,-1.75
2022-12-08T00:21:53.476Z,-1.79
2022-12-08T00:24:22.374Z,-1.83
2022-12-08T00:26:50.534Z,-1.85
2022-12-08T00:29:18.543Z,-1.86
2022-12-08T00:31:47.110Z,-1.90
2022-12-08T00:34:15.757Z,-1.98
2022-12-08T00:36:43.791Z,-2.06
2022-12-08T00:39:12.407Z,-2.06
2022-12-08T00:41:58.971Z,-2.06
2022-12-08T00:44:26.870Z,-2.06
2022-12-08T00:46:55.270Z,-2.05
2022-12-08T00:54:00.541Z,-2.11
2022-12-08T00:56:28.469Z,-2.15
2022-12-08T00:58:56.388Z,-2.22
2022-12-08T01:01:24.406Z,-2.23
2022-12-08T01:03:52.799Z,-2.24
2022-12-08T01:06:20.827Z,-2.27
2022-12-08T01:08:48.904Z,-2.31
2022-12-08T01:11:17.915Z,-2.34
2022-12-08T01:13:46.704Z,-2.41
2022-12-08T01:16:21.654Z,-2.48
2022-12-08T01:18:49.714Z,-2.50
2022-12-08T01:21:18.097Z,-2.51
2022-12-08T01:23:46.386Z,-2.49
2022-12-08T01:26:16.092Z,-2.48
2022-12-08T01:28:44.683Z,-2.48
2022-12-08T01:31:13.707Z,-2.47
2022-12-08T01:33:41.963Z,-2.47
2022-12-08T01:36:18.745Z,-2.51
2022-12-08T01:38:46.760Z,-2.61
2022-12-08T01:41:16.215Z,-2.65
2022-12-08T01:43:50.245Z,-2.67
2022-12-08T01:46:18.166Z,-2.91
2022-12-08T01:48:46.204Z,-3.01
2022-12-08T01:51:14.503Z,-3.08
2022-12-08T01:53:42.556Z,-3.08
2022-12-08T01:56:17.236Z,-3.07
2022-12-08T01:58:48.056Z,-3.05
2022-12-08T02:01:16.677Z,-3.01
2022-12-08T02:03:50.334Z,-3.01
2022-12-08T02:06:19.277Z,-3.05
2022-12-08T02:08:47.913Z,-3.05
2022-12-08T02:11:16.299Z,-3.06
2022-12-08T02:13:46.319Z,-3.03
2022-12-08T02:16:17.225Z,-3.02
2022-12-08T02:19:29.176Z,-3.03
2022-12-08T02:21:54.797Z,-3.10
2022-12-08T02:24:31.570Z,-3.20
2022-12-08T02:27:05.792Z,-3.19
2022-12-08T02:29:40.117Z,-3.22
2022-12-08T02:32:14.133Z,-3.23
2022-12-08T02:34:42.007Z,-3.26
2022-12-08T02:37:19.300Z,-3.26
2022-12-08T02:39:53.939Z,-3.31
2022-12-08T02:42:38.288Z,-3.36
2022-12-08T02:45:15.271Z,-3.42
2022-12-08T02:47:43.588Z,-3.42
2022-12-08T02:50:12.453Z,-3.41
2022-12-08T02:52:44.523Z,-3.41
2022-12-08T02:55:27.828Z,-3.43
2022-12-08T02:58:11.293Z,-3.41
2022-12-08T03:00:45.307Z,-3.41
2022-12-08T03:03:13.180Z,-3.41
2022-12-08T03:05:59.814Z,-3.43
2022-12-08T03:08:42.530Z,-3.45
2022-12-08T03:11:34.966Z,-3.47
2022-12-08T03:14:04.887Z,-3.43
2022-12-08T03:16:35.118Z,-3.41
2022-12-08T03:19:23.275Z,-3.43
2022-12-08T03:21:53.597Z,-3.47
2022-12-08T03:24:23.178Z,-3.44
2022-12-08T03:26:54.780Z,-3.46
2022-12-08T03:29:23.062Z,-3.47
2022-12-08T03:31:54.573Z,-3.48
2022-12-08T03:34:24.016Z,-3.53
2022-12-08T03:36:51.895Z,-3.50
2022-12-08T03:39:19.979Z,-3.49
2022-12-08T03:41:47.938Z,-3.45
2022-12-08T03:44:16.007Z,-3.46
2022-12-08T03:46:43.906Z,-3.46
2022-12-08T03:49:11.989Z,-3.44
2022-12-08T03:51:39.944Z,-3.47
2022-12-08T03:54:07.818Z,-3.53
2022-12-08T03:56:36.766Z,-3.52
2022-12-08T03:59:05.506Z,-3.50
2022-12-08T04:01:33.457Z,-3.49
2022-12-08T04:04:01.543Z,-3.48
2022-12-08T04:06:29.573Z,-3.45
2022-12-08T04:08:57.481Z,-3.42
2022-12-08T04:11:25.368Z,-3.39
2022-12-08T04:13:53.462Z,-3.37
2022-12-08T04:16:23.251Z,-3.37
2022-12-08T04:18:51.463Z,-3.42
2022-12-08T04:21:19.742Z,-3.43
2022-12-08T04:23:47.776Z,-3.44
2022-12-08T04:26:16.007Z,-3.45
2022-12-08T04:28:44.797Z,-3.52
2022-12-08T04:31:12.912Z,-3.53
2022-12-08T04:33:40.953Z,-3.61
2022-12-08T04:36:09.346Z,-3.64
2022-12-08T04:38:37.413Z,-3.67
2022-12-08T04:41:05.492Z,-3.67
2022-12-08T04:43:33.567Z,-3.69
2022-12-08T04:46:01.644Z,-3.75
2022-12-08T04:48:29.517Z,-3.77
2022-12-08T04:50:57.422Z,-3.75
2022-12-08T04:53:26.797Z,-3.77
2022-12-08T04:55:55.078Z,-3.77
2022-12-08T04:58:23.157Z,-3.77
2022-12-08T05:00:51.217Z,-3.76
2022-12-08T05:03:22.647Z,-3.75
2022-12-08T05:05:56.254Z,-3.73
2022-12-08T05:08:24.197Z,-3.70
2022-12-08T05:10:52.232Z,-3.67
2022-12-08T05:13:20.216Z,-3.63
2022-12-08T05:15:48.223Z,-3.59
2022-12-08T05:18:16.776Z,-3.59
2022-12-08T05:20:44.583Z,-3.54
2022-12-08T05:23:12.457Z,-3.52
2022-12-08T05:25:40.391Z,-3.49
2022-12-08T05:28:39.771Z,-3.48
2022-12-08T05:30:56.305Z,-3.49
2022-12-08T05:33:24.137Z,-3.48
2022-12-08T05:35:52.216Z,-3.47
2022-12-08T05:38:20.703Z,-3.50
2022-12-08T05:40:48.730Z,-3.53
2022-12-08T05:43:16.782Z,-3.49
2022-12-08T05:45:44.844Z,-3.49
2022-12-08T05:48:13.044Z,-3.47
2022-12-08T05:50:45.719Z,-3.53
2022-12-08T05:53:14.520Z,-3.52
2022-12-08T05:55:42.552Z,-3.50
2022-12-08T05:58:13.100Z,-3.49
2022-12-08T06:00:42.494Z,-3.46
2022-12-08T06:03:11.961Z,-3.43
2022-12-08T06:05:41.630Z,-3.34
2022-12-08T06:08:10.344Z,-3.28
2022-12-08T06:10:38.926Z,-3.23
2022-12-08T06:13:07.096Z,-3.15
2022-12-08T06:15:38.745Z,-3.03
2022-12-08T06:18:06.907Z,-2.93
2022-12-08T06:20:34.848Z,-2.84
2022-12-08T06:23:03.605Z,-2.74
2022-12-08T06:25:31.738Z,-2.74
2022-12-08T06:27:59.872Z,-2.68
2022-12-08T06:30:28.955Z,-2.61
2022-12-08T06:32:57.130Z,-2.55
2022-12-08T06:35:25.183Z,-2.47
2022-12-08T06:37:53.144Z,-2.42
2022-12-08T06:40:21.281Z,-2.47
2022-12-08T06:42:49.214Z,-2.46
2022-12-08T06:45:18.144Z,-2.47
2022-12-08T06:47:46.116Z,-2.35
2022-12-08T06:50:14.956Z,-2.25
2022-12-08T06:52:54.268Z,-2.14
2022-12-08T06:55:57.416Z,-2.01
2022-12-08T06:58:14.815Z,-1.90
2022-12-08T07:00:43.605Z,-1.81
2022-12-08T07:03:12.529Z,-1.76
2022-12-08T07:05:40.721Z,-1.66
2022-12-08T07:08:09.899Z,-1.56
2022-12-08T07:10:38.110Z,-1.51
2022-12-08T07:13:06.264Z,-1.44
2022-12-08T07:15:34.732Z,-1.41
2022-12-08T07:18:02.617Z,-1.40
2022-12-08T07:20:30.614Z,-1.29
2022-12-08T07:22:58.844Z,-1.21
2022-12-08T07:25:27.074Z,-1.13
2022-12-08T07:27:54.955Z,-1.03
2022-12-08T07:30:23.056Z,-0.92
2022-12-08T07:32:50.923Z,-0.87
2022-12-08T07:35:18.928Z,-0.82
2022-12-08T07:37:47.075Z,-0.81
2022-12-08T07:40:15.348Z,-0.73
2022-12-08T07:42:43.313Z,-0.71
2022-12-08T07:45:11.479Z,-0.66
2022-12-08T07:47:39.439Z,-0.57
2022-12-08T07:50:08.227Z,-0.46
2022-12-08T07:52:36.331Z,-0.36
2022-12-08T07:55:04.505Z,-0.18
2022-12-08T07:57:32.613Z,-0.06
2022-12-08T08:00:00.868Z,0.07
2022-12-08T08:02:29.140Z,0.16
2022-12-08T08:04:57.361Z,0.19
2022-12-08T08:07:25.399Z,0.23
2022-12-08T08:09:53.459Z,0.37
2022-12-08T08:12:36.992Z,0.53
2022-12-08T08:15:07.632Z,0.64
2022-12-08T08:17:36.732Z,0.73
2022-12-08T08:20:07.482Z,0.82
2022-12-08T08:22:36.764Z,0.90
2022-12-08T08:25:05.957Z,0.94
2022-12-08T08:27:34.587Z,0.95
2022-12-08T08:30:03.321Z,0.98
2022-12-08T08:32:34.703Z,0.95
2022-12-08T08:35:03.072Z,0.91
2022-12-08T08:37:31.064Z,0.93
2022-12-08T08:39:59.179Z,0.91
2022-12-08T08:42:28.060Z,0.98
2022-12-08T08:44:56.053Z,1.03
2022-12-08T08:47:24.147Z,1.10
2022-12-08T08:49:52.171Z,1.22
2022-12-08T08:52:20.252Z,1.39
2022-12-08T08:54:48.287Z,1.55
2022-12-08T08:57:18.456Z,1.58
2022-12-08T08:59:50.327Z,1.66
2022-12-08T09:02:19.010Z,1.69
2022-12-08T09:04:47.542Z,1.75
2022-12-08T09:07:16.137Z,1.85
2022-12-08T09:09:44.131Z,1.87
2022-12-08T09:12:12.795Z,1.86
2022-12-08T09:14:40.790Z,1.98
2022-12-08T09:17:09.136Z,2.05
2022-12-08T09:19:37.429Z,2.10
2022-12-08T09:22:06.232Z,2.15
2022-12-08T09:24:34.359Z,2.18
2022-12-08T09:27:02.730Z,2.23
2022-12-08T09:29:35.576Z,2.27
2022-12-08T09:32:04.877Z,2.32
2022-12-08T09:34:32.770Z,2.30
2022-12-08T09:37:00.799Z,2.31
2022-12-08T09:39:28.817Z,2.33
2022-12-08T09:42:01.418Z,2.36
2022-12-08T09:44:55.429Z,2.35
2022-12-08T09:47:35.267Z,2.34
2022-12-08T09:50:11.791Z,2.36
2022-12-08T09:52:43.685Z,2.40
2022-12-08T09:55:15.665Z,2.42
2022-12-08T09:57:44.046Z,2.40
2022-12-08T10:00:13.006Z,2.44
2022-12-08T10:02:41.164Z,2.38
2022-12-08T10:05:13.998Z,2.38
2022-12-08T10:07:45.684Z,2.45
2022-12-08T10:10:20.173Z,2.53
2022-12-08T10:12:58.541Z,2.61
2022-12-08T10:15:33.162Z,2.59
2022-12-08T10:18:02.980Z,2.61
2022-12-08T10:20:39.422Z,2.59
2022-12-08T10:23:07.580Z,2.68
2022-12-08T10:25:38.310Z,2.74
2022-12-08T10:28:06.280Z,2.84
2022-12-08T10:30:34.351Z,2.91
2022-12-08T10:33:02.429Z,3.06
2022-12-08T10:35:49.517Z,3.17
2022-12-08T10:38:19.777Z,3.21
2022-12-08T10:40:48.792Z,3.23
2022-12-08T10:43:25.015Z,3.33
2022-12-08T10:45:53.114Z,3.56
2022-12-08T10:48:22.813Z,3.75
2022-12-08T10:50:58.168Z,3.73
2022-12-08T10:53:27.695Z,3.73
2022-12-08T10:56:02.272Z,3.78
2022-12-08T10:58:30.968Z,3.76
2022-12-08T11:01:01.889Z,3.75
2022-12-08T11:03:34.796Z,3.76
2022-12-08T11:06:12.107Z,3.67
2022-12-08T11:08:48.262Z,3.56
2022-12-08T11:11:17.071Z,3.42
2022-12-08T11:13:47.716Z,3.43
2022-12-08T11:16:16.839Z,3.45
2022-12-08T11:18:51.115Z,3.38
2022-12-08T11:21:19.643Z,3.28
2022-12-08T11:23:49.991Z,3.22
2022-12-08T11:26:24.038Z,3.19
2022-12-08T11:28:52.383Z,3.21
2022-12-08T11:31:32.422Z,3.18
2022-12-08T11:34:02.095Z,3.19
2022-12-08T11:36:32.686Z,3.23
2022-12-08T11:39:02.939Z,3.31
2022-12-08T11:41:35.234Z,3.30
2022-12-08T11:44:23.754Z,3.24
2022-12-08T11:46:57.046Z,3.20
2022-12-08T11:52:20.941Z,3.20
2022-12-08T11:54:52.391Z,3.15
2022-12-08T11:57:21.285Z,3.09
2022-12-08T11:59:50.446Z,3.03
2022-12-08T12:02:20.893Z,3.09
2022-12-08T12:04:52.973Z,3.14
2022-12-08T12:07:26.368Z,3.05
2022-12-08T12:09:57.296Z,3.14
2022-12-08T12:12:51.927Z,3.23
2022-12-08T12:15:38.829Z,3.27
2022-12-08T12:18:30.243Z,3.29
2022-12-08T12:21:16.358Z,3.28
2022-12-08T12:23:46.870Z,3.31
2022-12-08T12:26:22.711Z,3.27
2022-12-08T12:29:05.334Z,3.28
2022-12-08T12:31:35.452Z,3.35
2022-12-08T12:34:07.870Z,3.28
2022-12-08T12:36:47.780Z,3.27
2022-12-08T12:39:18.618Z,3.24
2022-12-08T12:41:49.047Z,3.20
2022-12-08T12:44:37.611Z,3.20
2022-12-08T12:47:10.598Z,3.13
2022-12-08T12:49:38.908Z,3.21
2022-12-08T12:52:09.805Z,3.25
2022-12-08T12:54:42.235Z,3.21
2022-12-08T12:57:10.220Z,3.10
2022-12-08T12:59:44.478Z,3.02
2022-12-08T13:02:21.874Z,2.98
2022-12-08T13:04:56.585Z,2.89
2022-12-08T13:07:27.118Z,2.80
2022-12-08T13:10:13.964Z,2.70
2022-12-08T13:12:43.755Z,2.68
2022-12-08T13:15:22.157Z,2.71
2022-12-08T13:17:50.333Z,2.72
2022-12-08T13:20:24.103Z,2.78
2022-12-08T13:23:01.324Z,2.81
2022-12-08T13:25:44.998Z,2.87
2022-12-08T13:28:15.690Z,2.91
2022-12-08T13:30:49.050Z,2.88
2022-12-08T13:33:19.780Z,2.88
2022-12-08T13:35:52.317Z,2.87
2022-12-08T13:38:21.560Z,2.87
2022-12-08T13:40:50.533Z,2.80
2022-12-08T13:43:24.694Z,2.79
2022-12-08T13:57:30.447Z,2.47
2022-12-08T14:00:03.581Z,2.35
2022-12-08T14:02:47.993Z,2.32
2022-12-08T14:05:19.607Z,2.35
2022-12-08T14:07:52.018Z,2.35
2022-12-08T14:10:22.529Z,2.27
2022-12-08T14:13:12.377Z,2.26
2022-12-08T14:15:40.407Z,2.25
2022-12-08T14:18:22.883Z,2.28
2022-12-08T14:21:20.919Z,2.33
2022-12-08T14:23:49.557Z,2.30
2022-12-08T14:26:18.050Z,2.32
2022-12-08T14:28:46.009Z,2.31
2022-12-08T14:31:15.014Z,2.33
2022-12-08T14:33:43.355Z,2.30
2022-12-08T14:36:14.689Z,2.29
2022-12-08T14:38:42.905Z,2.28
2022-12-08T14:41:12.154Z,2.26
2022-12-08T14:43:43.697Z,2.27
2022-12-08T14:46:23.633Z,2.32
2022-12-08T14:48:53.774Z,2.34
2022-12-08T14:51:21.799Z,2.32
2022-12-08T14:53:59.069Z,2.30
2022-12-08T14:56:33.879Z,2.24
2022-12-08T14:59:23.212Z,2.21
2022-12-08T15:01:52.725Z,2.21
2022-12-08T15:04:24.448Z,2.19
2022-12-08T15:06:58.104Z,2.19
2022-12-08T15:09:32.219Z,2.16
2022-12-08T15:12:01.744Z,2.12
2022-12-08T15:14:32.054Z,2.10
2022-12-08T15:17:00.039Z,2.07
2022-12-08T15:19:29.900Z,2.00
2022-12-08T15:22:00.404Z,1.99
2022-12-08T15:24:30.620Z,2.03
2022-12-08T15:26:58.774Z,2.03
2022-12-08T15:29:28.085Z,2.01
2022-12-08T15:31:58.015Z,1.96
2022-12-08T15:34:26.303Z,1.98
2022-12-08T15:36:54.867Z,1.99
2022-12-08T15:39:22.783Z,2.02
2022-12-08T15:41:50.807Z,2.03
2022-12-08T15:44:18.952Z,2.03
2022-12-08T15:46:47.081Z,2.05
2022-12-08T15:49:17.493Z,2.07
2022-12-08T15:51:45.607Z,2.07
2022-12-08T15:54:14.559Z,2.00
2022-12-08T15:57:17.841Z,2.03
2022-12-08T15:59:41.943Z,2.02
2022-12-08T16:02:12.622Z,1.99
2022-12-08T16:07:31.128Z,2.00
2022-12-08T16:09:59.234Z,1.98
2022-12-08T16:13:48.150Z,1.91
2022-12-08T16:15:59.101Z,1.95
2022-12-08T16:18:26.918Z,2.01
2022-12-08T16:21:23.843Z,2.01
2022-12-08T16:23:44.538Z,1.95
2022-12-08T16:27:01.057Z,1.88
2022-12-08T16:29:11.370Z,1.79
2022-12-08T16:31:39.298Z,1.77
2022-12-08T16:34:07.530Z,1.69
2022-12-08T16:36:35.460Z,1.73
2022-12-08T16:39:03.506Z,1.71
2022-12-08T16:41:50.530Z,1.66
2022-12-08T16:44:18.408Z,1.60
2022-12-08T16:46:46.451Z,1.58
2022-12-08T16:49:15.673Z,1.55
2022-12-08T16:51:44.045Z,1.54
2022-12-08T16:54:12.311Z,1.56
2022-12-08T16:56:40.196Z,1.54
2022-12-08T16:59:08.260Z,1.55
2022-12-08T17:01:36.509Z,1.52
2022-12-08T17:04:30.389Z,1.49
2022-12-08T17:06:53.047Z,1.48
2022-12-08T17:09:21.048Z,1.49
2022-12-08T17:11:49.139Z,1.51
2022-12-08T17:14:17.049Z,1.47
2022-12-08T17:16:45.054Z,1.49
2022-12-08T17:19:13.689Z,1.45
2022-12-08T17:21:41.979Z,1.49
2022-12-08T17:24:10.064Z,1.51
2022-12-08T17:26:37.970Z,1.51
2022-12-08T17:29:05.888Z,1.51
2022-12-08T17:31:34.176Z,1.54
2022-12-08T17:34:03.361Z,1.56
2022-12-08T17:36:31.221Z,1.53
2022-12-08T17:39:00.559Z,1.45
2022-12-08T17:41:28.918Z,1.48
2022-12-08T17:43:57.342Z,1.45
2022-12-08T17:46:25.752Z,1.48
2022-12-08T17:48:53.894Z,1.44
2022-12-08T17:51:22.360Z,1.38
2022-12-08T17:53:50.425Z,1.45
2022-12-08T17:56:19.825Z,1.50
2022-12-08T17:58:54.038Z,1.52
2022-12-08T18:01:23.698Z,1.52
2022-12-08T18:03:51.955Z,1.44
2022-12-08T18:06:20.384Z,1.48
2022-12-08T18:08:48.412Z,1.51
2022-12-08T18:11:17.972Z,1.48
2022-12-08T18:13:47.359Z,1.46
2022-12-08T18:16:15.278Z,1.48
2022-12-08T18:18:43.489Z,1.46
2022-12-08T18:21:11.671Z,1.44
2022-12-08T18:23:40.566Z,1.47
2022-12-08T18:26:10.109Z,1.44
2022-12-08T18:28:38.301Z,1.45
2022-12-08T18:31:10.964Z,1.43
2022-12-08T18:33:39.978Z,1.40
2022-12-08T18:36:09.420Z,1.40
2022-12-08T18:38:37.607Z,1.45
2022-12-08T18:41:13.604Z,1.49
2022-12-08T18:43:41.830Z,1.51
2022-12-08T18:46:10.953Z,1.55
2022-12-08T18:48:41.547Z,1.55
2022-12-08T18:51:11.747Z,1.54
2022-12-08T18:53:40.032Z,1.53
2022-12-08T18:56:08.723Z,1.53
2022-12-08T18:58:36.797Z,1.54
2022-12-08T19:01:04.837Z,1.54
2022-12-08T19:03:32.904Z,1.53
2022-12-08T19:06:04.301Z,1.47
2022-12-08T19:08:32.635Z,1.51
2022-12-08T19:11:00.870Z,1.54
2022-12-08T19:13:28.840Z,1.55
2022-12-08T19:15:56.938Z,1.55
2022-12-08T19:18:24.997Z,1.52
2022-12-08T19:20:56.948Z,1.53
2022-12-08T19:23:25.065Z,1.54
2022-12-08T19:25:52.888Z,1.57
2022-12-08T19:28:20.854Z,1.55
2022-12-08T19:30:49.084Z,1.56
2022-12-08T19:33:17.250Z,1.54
2022-12-08T19:35:52.058Z,1.53
2022-12-08T19:38:20.568Z,1.52
2022-12-08T19:41:07.285Z,1.50
2022-12-08T19:43:54.301Z,1.50
2022-12-08T19:46:22.445Z,1.51
2022-12-08T19:48:50.563Z,1.50
2022-12-08T19:51:18.562Z,1.49
2022-12-08T19:53:48.029Z,1.46
2022-12-08T19:56:16.246Z,1.47
2022-12-08T19:58:44.179Z,1.46
2022-12-08T20:01:12.119Z,1.47
2022-12-08T20:03:40.223Z,1.49
2022-12-08T20:06:13.161Z,1.50
2022-12-08T20:08:44.827Z,1.48
2022-12-08T20:11:15.749Z,1.51
2022-12-08T20:13:47.880Z,1.51
2022-12-08T20:16:16.916Z,1.47
2022-12-08T20:18:46.040Z,1.49
2022-12-08T20:21:14.133Z,1.52
2022-12-08T20:23:42.452Z,1.55
2022-12-08T20:26:13.147Z,1.54
2022-12-08T20:28:41.112Z,1.57
2022-12-08T20:31:16.897Z,1.56
2022-12-08T20:33:44.929Z,1.54
2022-12-08T20:36:15.577Z,1.53
2022-12-08T20:38:43.685Z,1.56
2022-12-08T20:41:11.662Z,1.58
2022-12-08T20:43:39.931Z,1.55
2022-12-08T20:46:08.732Z,1.57
2022-12-08T20:48:37.070Z,1.61
2022-12-08T20:51:05.195Z,1.64
2022-12-08T20:53:33.318Z,1.63
2022-12-08T20:56:01.175Z,1.62
2022-12-08T20:58:29.247Z,1.60
2022-12-08T21:04:27.569Z,1.60
2022-12-08T21:06:56.042Z,1.60
2022-12-08T21:09:24.270Z,1.53
2022-12-08T21:11:52.496Z,1.58
2022-12-08T21:14:20.819Z,1.60
2022-12-08T21:16:51.017Z,1.63
2022-12-08T21:19:20.611Z,1.66
2022-12-08T21:21:50.873Z,1.63
2022-12-08T21:24:19.018Z,1.59
2022-12-08T21:26:47.169Z,1.62
2022-12-08T21:29:15.216Z,1.65
2022-12-08T21:31:43.336Z,1.70
2022-12-08T21:34:11.502Z,1.69
2022-12-08T21:36:39.736Z,1.67
2022-12-08T21:39:12.825Z,1.71
2022-12-08T21:41:59.844Z,1.70
2022-12-08T21:44:27.827Z,1.66
2022-12-08T21:46:55.757Z,1.69
2022-12-08T21:49:24.114Z,1.70
2022-12-08T21:51:52.228Z,1.70
2022-12-08T21:54:20.292Z,1.72
2022-12-08T21:56:49.741Z,1.72
2022-12-08T21:59:18.140Z,1.74
2022-12-08T22:01:46.801Z,1.71
2022-12-08T22:04:19.213Z,1.64
2022-12-08T22:06:48.086Z,1.66
2022-12-08T22:09:16.425Z,1.62
2022-12-08T22:11:44.881Z,1.57
2022-12-08T22:14:15.153Z,1.63
2022-12-08T22:16:44.359Z,1.57
2022-12-08T22:19:12.813Z,1.62
2022-12-08T22:21:41.601Z,1.68
2022-12-08T22:24:09.836Z,1.71
2022-12-08T22:26:38.185Z,1.69
2022-12-08T22:29:06.850Z,1.65
2022-12-08T22:31:34.942Z,1.68
2022-12-08T22:34:03.225Z,1.65
2022-12-08T22:36:31.177Z,1.67
2022-12-08T22:38:59.068Z,1.67
2022-12-08T22:41:27.058Z,1.62
2022-12-08T22:43:55.047Z,1.60
2022-12-08T22:46:23.926Z,1.59
2022-12-08T22:48:52.360Z,1.64
2022-12-08T22:51:20.326Z,1.58
2022-12-08T22:53:49.448Z,1.64
2022-12-08T22:56:18.673Z,1.69
2022-12-08T22:58:46.996Z,1.70
2022-12-08T23:01:23.046Z,1.73
2022-12-08T23:03:51.441Z,1.77
2022-12-08T23:06:19.876Z,1.76
2022-12-08T23:08:48.511Z,1.68
2022-12-08T23:11:16.716Z,1.72
2022-12-08T23:13:44.684Z,1.69
2022-12-08T23:16:13.311Z,1.72
2022-12-08T23:18:42.549Z,1.69
2022-12-08T23:21:12.610Z,1.71
2022-12-08T23:23:41.072Z,1.70
2022-12-08T23:26:17.061Z,1.72
2022-12-08T23:28:45.344Z,1.72
2022-12-08T23:31:13.395Z,1.64
2022-12-08T23:33:41.733Z,1.72
2022-12-08T23:36:10.678Z,1.69
2022-12-08T23:38:39.085Z,1.72
2022-12-08T23:41:08.270Z,1.70
2022-12-08T23:43:36.522Z,1.71
2022-12-08T23:46:04.757Z,1.78
2022-12-08T23:48:35.048Z,1.75
2022-12-08T23:51:03.286Z,1.78
2022-12-08T23:53:32.047Z,1.70
2022-12-08T23:56:01.310Z,1.67
2022-12-08T23:58:33.289Z,1.75
